地図

経路データ

SID SEASON NUMBER BASIN SUBBASIN NAME ISO_TIME NATURE LAT LON WMO_WIND WMO_PRES WMO_AGENCY TRACK_TYPE DIST2LAND LANDFALL IFLAG USA_AGENCY USA_ATCF_ID USA_LAT USA_LON USA_RECORD USA_STATUS USA_WIND USA_PRES USA_SSHS USA_R34_NE USA_R34_SE USA_R34_SW USA_R34_NW USA_R50_NE USA_R50_SE USA_R50_SW USA_R50_NW USA_R64_NE USA_R64_SE USA_R64_SW USA_R64_NW USA_POCI USA_ROCI USA_RMW USA_EYE TOKYO_LAT TOKYO_LON TOKYO_GRADE TOKYO_WIND TOKYO_PRES TOKYO_R50_DIR TOKYO_R50_LONG TOKYO_R50_SHORT TOKYO_R30_DIR TOKYO_R30_LONG TOKYO_R30_SHORT TOKYO_LAND CMA_LAT CMA_LON CMA_CAT CMA_WIND CMA_PRES HKO_LAT HKO_LON HKO_CAT HKO_WIND HKO_PRES NEWDELHI_LAT NEWDELHI_LON NEWDELHI_GRADE NEWDELHI_WIND NEWDELHI_PRES NEWDELHI_CI NEWDELHI_DP NEWDELHI_POCI REUNION_LAT REUNION_LON REUNION_TYPE REUNION_WIND REUNION_PRES REUNION_TNUM REUNION_CI REUNION_RMW REUNION_R34_NE REUNION_R34_SE REUNION_R34_SW REUNION_R34_NW REUNION_R50_NE REUNION_R50_SE REUNION_R50_SW REUNION_R50_NW REUNION_R64_NE REUNION_R64_SE REUNION_R64_SW REUNION_R64_NW BOM_LAT BOM_LON BOM_TYPE BOM_WIND BOM_PRES BOM_TNUM BOM_CI BOM_RMW BOM_R34_NE BOM_R34_SE BOM_R34_SW BOM_R34_NW BOM_R50_NE BOM_R50_SE BOM_R50_SW BOM_R50_NW BOM_R64_NE BOM_R64_SE BOM_R64_SW BOM_R64_NW BOM_ROCI BOM_POCI BOM_EYE BOM_POS_METHOD BOM_PRES_METHOD NADI_LAT NADI_LON NADI_CAT NADI_WIND NADI_PRES WELLINGTON_LAT WELLINGTON_LON WELLINGTON_WIND WELLINGTON_PRES DS824_LAT DS824_LON DS824_STAGE DS824_WIND DS824_PRES TD9636_LAT TD9636_LON TD9636_STAGE TD9636_WIND TD9636_PRES TD9635_LAT TD9635_LON TD9635_WIND TD9635_PRES TD9635_ROCI NEUMANN_LAT NEUMANN_LON NEUMANN_CLASS NEUMANN_WIND NEUMANN_PRES MLC_LAT MLC_LON MLC_CLASS MLC_WIND MLC_PRES USA_GUST BOM_GUST BOM_GUST_PER REUNION_GUST REUNION_GUST_PER USA_SEAHGT USA_SEARAD_NE USA_SEARAD_SE USA_SEARAD_SW USA_SEARAD_NW STORM_SPEED STORM_DIR
1868288N16291 1868 15 NA CS NOT_NAMED 1868-10-14 00:00:00 TS 16.0000 -69.4000 main 254 204 _____________O -1 16.0000 -69.4000 TD 30 11 344
1868288N16291 1868 15 NA CS NOT_NAMED 1868-10-14 03:00:00 TS 16.5025 -69.5498 main 204 144 _____________P -1 16.5025 -69.5498 TD 42 10 344
1868288N16291 1868 15 NA CS NOT_NAMED 1868-10-14 06:00:00 TS 17.0000 -69.7000 main 144 89 _____________O -1 17.0000 -69.7000 TS 55 10 344
1868288N16291 1868 15 NA CS NOT_NAMED 1868-10-14 09:00:00 TS 17.4925 -69.8501 main 84 30 _____________P -1 17.4925 -69.8501 TS 62 10 344
1868288N16291 1868 15 NA CS NOT_NAMED 1868-10-14 12:00:00 TS 18.0000 -70.0000 main 30 0 _____________O -1 18.0000 -70.0000 HU 70 11 345
1868288N16291 1868 15 NA NA NOT_NAMED 1868-10-14 15:00:00 TS 18.5500 -70.1501 main 0 0 _____________P -1 18.5500 -70.1501 HU 60 11 345
1868288N16291 1868 15 NA NA NOT_NAMED 1868-10-14 18:00:00 TS 19.1000 -70.3000 main 0 0 _____________O -1 19.1000 -70.3000 TS 50 11 345
1868288N16291 1868 15 NA NA NOT_NAMED 1868-10-14 21:00:00 TS 19.6000 -70.4501 main 0 0 _____________P -1 19.6000 -70.4501 TS 47 10 344
1868288N16291 1868 15 NA NA NOT_NAMED 1868-10-15 00:00:00 TS 20.1000 -70.6000 main 33 33 _____________O -1 20.1000 -70.6000 TS 45 11 345
1868288N16291 1868 15 NA NA NOT_NAMED 1868-10-15 03:00:00 TS 20.6500 -70.7501 main 89 89 _____________P -1 20.6500 -70.7501 TS 50 11 346
1868288N16291 1868 15 NA NA NOT_NAMED 1868-10-15 06:00:00 TS 21.2000 -70.9000 main 156 156 _____________O -1 21.2000 -70.9000 TS 55 11 344
1868288N16291 1868 15 NA NA NOT_NAMED 1868-10-15 09:00:00 TS 21.6850 -71.0724 main 204 204 _____________P -1 21.6850 -71.0724 TS 57 10 344
1868288N16291 1868 15 NA NA NOT_NAMED 1868-10-15 12:00:00 TS 22.2000 -71.2000 main 216 216 _____________O -1 22.2000 -71.2000 TS 60 12 353
1868288N16291 1868 15 NA NA NOT_NAMED 1868-10-15 15:00:00 TS 22.8275 -71.2228 main 257 257 _____________P -1 22.8275 -71.2228 TS 60 13 1
1868288N16291 1868 15 NA NA NOT_NAMED 1868-10-15 18:00:00 TS 23.5000 -71.2000 main 316 316 _____________O -1 23.5000 -71.2000 TS 60 13 0
1868288N16291 1868 15 NA NA NOT_NAMED 1868-10-15 21:00:00 TS 24.1499 -71.2443 main 373 373 _____________P -1 24.1499 -71.2443 TS 62 13 1
1868288N16291 1868 15 NA NA NOT_NAMED 1868-10-16 00:00:00 TS 24.8000 -71.2000 main 442 442 _____________O -1 24.8000 -71.2000 HU 65 13 11
1868288N16291 1868 15 NA NA NOT_NAMED 1868-10-16 03:00:00 TS 25.4575 -70.9602 main 522 522 _____________P -1 25.4575 -70.9602 HU 65 14 23
1868288N16291 1868 15 NA NA NOT_NAMED 1868-10-16 06:00:00 TS 26.1000 -70.6000 main 599 599 _____________O -1 26.1000 -70.6000 HU 65 13 26
1868288N16291 1868 15 NA NA NOT_NAMED 1868-10-16 09:00:00 TS 26.6310 -70.3234 main 662 662 _____________P -1 26.6310 -70.3234 HU 65 14 31
1868288N16291 1868 15 NA NA NOT_NAMED 1868-10-16 12:00:00 TS 27.3000 -69.8000 main 754 754 _____________O -1 27.3000 -69.8000 HU 65 22 39
1868288N16291 1868 15 NA NA NOT_NAMED 1868-10-16 15:00:00 TS 28.3266 -68.7572 main 899 899 _____________P -1 28.3266 -68.7572 HU 65 30 43
1868288N16291 1868 15 NA NA NOT_NAMED 1868-10-16 18:00:00 TS 29.5000 -67.5000 main 1021 1021 _____________O -1 29.5000 -67.5000 HU 65 31 42
1868288N16291 1868 15 NA NA NOT_NAMED 1868-10-16 21:00:00 TS 30.5987 -66.3970 main 1024 1024 _____________P -1 30.5987 -66.3970 HU 65 29 41
1868288N16291 1868 15 NA NA NOT_NAMED 1868-10-17 00:00:00 TS 31.7000 -65.3000 main 1045 1045 _____________O -1 31.7000 -65.3000 HU 65 29 41
1868288N16291 1868 15 NA NA NOT_NAMED 1868-10-17 03:00:00 TS 32.8068 -64.1480 main 1096 1066 _____________P -1 32.8068 -64.1480 HU 65 29 41
1868288N16291 1868 15 NA NA NOT_NAMED 1868-10-17 06:00:00 TS 33.9000 -63.0000 main 1062 995 _____________O -1 33.9000 -63.0000 HU 65 29 40
1868288N16291 1868 15 NA NA NOT_NAMED 1868-10-17 09:00:00 TS 34.9999 -61.9346 main 989 914 _____________P -1 34.9999 -61.9346 HU 65 28 41
1868288N16291 1868 15 NA NA NOT_NAMED 1868-10-17 12:00:00 TS 36.0000 -60.8000 main 918 888 _____________O -1 36.0000 -60.8000 HU 65 26 47
1868288N16291 1868 15 NA NA NOT_NAMED 1868-10-17 15:00:00 TS 36.7726 -59.5996 main 887 883 _____________P -1 36.7726 -59.5996 HU 62 27 56
1868288N16291 1868 15 NA NA NOT_NAMED 1868-10-17 18:00:00 ET 37.5000 -58.0000 main 894 877 _____________O -1 37.5000 -58.0000 EX 60 35 64
1868288N16291 1868 15 NA NA NOT_NAMED 1868-10-17 21:00:00 ET 38.3512 -55.5866 main 881 822 _____________P -1 38.3512 -55.5866 EX 60 43 67
1868288N16291 1868 15 NA NA NOT_NAMED 1868-10-18 00:00:00 ET 39.2000 -53.0000 main 823 756 _____________O -1 39.2000 -53.0000 EX 60 40 66
1868288N16291 1868 15 NA NA NOT_NAMED 1868-10-18 03:00:00 ET 40.0051 -50.8231 main 758 719 _____________P -1 40.0051 -50.8231 EX 60 34 62
1868288N16291 1868 15 NA NA NOT_NAMED 1868-10-18 06:00:00 ET 40.8000 -49.1000 main 723 697 _____________O -1 40.8000 -49.1000 EX 60 27 54
1868288N16291 1868 15 NA NA NOT_NAMED 1868-10-18 09:00:00 ET 41.5940 -47.9503 main 692 670 _____________P -1 41.5940 -47.9503 EX 60 22 43
1868288N16291 1868 15 NA NA NOT_NAMED 1868-10-18 12:00:00 ET 42.4000 -47.1000 main 670 663 _____________O -1 42.4000 -47.1000 EX 60 21 41
1868288N16291 1868 15 NA NA NOT_NAMED 1868-10-18 15:00:00 ET 43.1922 -46.0755 main 671 671 _____________P -1 43.1922 -46.0755 EX 60 22 42
1868288N16291 1868 15 NA NA NOT_NAMED 1868-10-18 18:00:00 ET 44.0000 -45.1000 main 688 688 _____________O -1 44.0000 -45.1000 EX 60 21 39
1868288N16291 1868 15 NA NA NOT_NAMED 1868-10-18 21:00:00 ET 44.8490 -44.2176 main 710 705 _____________P -1 44.8490 -44.2176 EX 60 21 35
1868288N16291 1868 15 NA NA NOT_NAMED 1868-10-19 00:00:00 ET 45.7000 -43.4000 main 727 727 _____________O -1 45.7000 -43.4000 EX 60 20 35
1868288N16291 1868 15 NA NA NOT_NAMED 1868-10-19 03:00:00 ET 46.4996 -42.5749 main 762 762 _____________P -1 46.4996 -42.5749 EX 60 19 35
1868288N16291 1868 15 NA NA NOT_NAMED 1868-10-19 06:00:00 ET 47.3000 -41.8000 main 808 808 _____________O -1 47.3000 -41.8000 EX 60 19 32
1868288N16291 1868 15 NA NA NOT_NAMED 1868-10-19 09:00:00 ET 48.1382 -41.0872 main 856 856 _____________P -1 48.1382 -41.0872 EX 60 19 29
1868288N16291 1868 15 NA NA NOT_NAMED 1868-10-19 12:00:00 ET 49.0000 -40.4000 main 913 _____________O -1 49.0000 -40.4000 EX 60 19 28

IBTrACS Databaseについて

本データベースは、米国NOAAが公開する1842年以降の世界の熱帯低気圧のベストトラックデータアーカイブInternational Best Track Archive for Climate Stewardship (IBTrACS)を、ウェブで閲覧しやすい形式に変換したものです。

最終更新日:2021-11-26